sensor_id;sensor_type;location;lat;lon;timestamp;pressure;altitude;pressure_sealevel;temperature;humidity
43115;BME280;28727;50.068;14.452;2022-11-20T00:00:55;99009.38;;;-1.49;75.71
43115;BME280;28727;50.068;14.452;2022-11-20T00:03:26;99005.72;;;-1.46;76.08
43115;BME280;28727;50.068;14.452;2022-11-20T00:06:02;99017.75;;;-1.45;75.61
43115;BME280;28727;50.068;14.452;2022-11-20T00:08:35;99006.16;;;-1.40;75.95
43115;BME280;28727;50.068;14.452;2022-11-20T00:11:13;99012.06;;;-1.38;75.65
43115;BME280;28727;50.068;14.452;2022-11-20T00:13:52;99017.03;;;-1.35;75.65
43115;BME280;28727;50.068;14.452;2022-11-20T00:16:26;99017.84;;;-1.34;75.60
43115;BME280;28727;50.068;14.452;2022-11-20T00:18:58;99015.41;;;-1.36;75.42
43115;BME280;28727;50.068;14.452;2022-11-20T00:21:29;99017.16;;;-1.36;75.72
43115;BME280;28727;50.068;14.452;2022-11-20T00:24:01;99012.59;;;-1.33;75.66
43115;BME280;28727;50.068;14.452;2022-11-20T00:26:33;99010.59;;;-1.29;75.91
43115;BME280;28727;50.068;14.452;2022-11-20T00:29:04;99015.38;;;-1.23;75.55
43115;BME280;28727;50.068;14.452;2022-11-20T00:31:36;99013.34;;;-1.18;75.64
43115;BME280;28727;50.068;14.452;2022-11-20T00:34:09;99019.31;;;-1.17;75.73
43115;BME280;28727;50.068;14.452;2022-11-20T00:36:41;99020.06;;;-1.15;75.59
43115;BME280;28727;50.068;14.452;2022-11-20T00:39:13;99018.28;;;-1.15;74.91
43115;BME280;28727;50.068;14.452;2022-11-20T00:41:44;99013.00;;;-1.13;74.90
43115;BME280;28727;50.068;14.452;2022-11-20T00:44:16;99020.66;;;-1.12;75.00
43115;BME280;28727;50.068;14.452;2022-11-20T00:46:48;99012.78;;;-1.10;75.24
43115;BME280;28727;50.068;14.452;2022-11-20T00:49:19;99020.38;;;-1.07;74.97
43115;BME280;28727;50.068;14.452;2022-11-20T00:51:51;99015.81;;;-1.04;75.27
43115;BME280;28727;50.068;14.452;2022-11-20T00:54:23;99020.56;;;-0.98;75.27
43115;BME280;28727;50.068;14.452;2022-11-20T00:56:55;99020.38;;;-0.95;75.53
43115;BME280;28727;50.068;14.452;2022-11-20T00:59:27;99015.06;;;-0.93;75.47
43115;BME280;28727;50.068;14.452;2022-11-20T01:02:00;99018.38;;;-0.91;75.40
43115;BME280;28727;50.068;14.452;2022-11-20T01:04:32;99011.88;;;-0.97;75.30
43115;BME280;28727;50.068;14.452;2022-11-20T01:07:03;99021.31;;;-1.08;76.04
43115;BME280;28727;50.068;14.452;2022-11-20T01:09:35;99018.41;;;-1.04;76.58
43115;BME280;28727;50.068;14.452;2022-11-20T01:12:06;99019.03;;;-1.00;76.66
43115;BME280;28727;50.068;14.452;2022-11-20T01:14:38;99014.34;;;-0.95;76.25
43115;BME280;28727;50.068;14.452;2022-11-20T01:17:10;99018.50;;;-1.05;76.45
43115;BME280;28727;50.068;14.452;2022-11-20T01:19:41;99027.22;;;-1.06;76.73
43115;BME280;28727;50.068;14.452;2022-11-20T01:22:13;99019.53;;;-1.08;76.92
43115;BME280;28727;50.068;14.452;2022-11-20T01:24:45;99026.47;;;-1.21;76.59
43115;BME280;28727;50.068;14.452;2022-11-20T01:27:16;99025.97;;;-1.26;77.44
43115;BME280;28727;50.068;14.452;2022-11-20T01:29:48;99026.69;;;-1.24;77.44
43115;BME280;28727;50.068;14.452;2022-11-20T01:32:19;99020.97;;;-1.16;77.58
43115;BME280;28727;50.068;14.452;2022-11-20T01:34:51;99022.56;;;-1.14;77.16
43115;BME280;28727;50.068;14.452;2022-11-20T01:37:23;99022.88;;;-1.18;77.42
43115;BME280;28727;50.068;14.452;2022-11-20T01:39:54;99018.69;;;-1.21;77.24
43115;BME280;28727;50.068;14.452;2022-11-20T01:42:26;99018.19;;;-1.26;77.55
43115;BME280;28727;50.068;14.452;2022-11-20T01:49:00;99008.84;;;-1.29;77.57
43115;BME280;28727;50.068;14.452;2022-11-20T01:54:08;99017.84;;;-1.34;78.01
43115;BME280;28727;50.068;14.452;2022-11-20T01:56:44;99013.91;;;-1.40;77.72
43115;BME280;28727;50.068;14.452;2022-11-20T01:59:18;99005.63;;;-1.45;78.28
43115;BME280;28727;50.068;14.452;2022-11-20T02:01:52;99005.84;;;-1.48;78.13
43115;BME280;28727;50.068;14.452;2022-11-20T02:04:25;98998.38;;;-1.40;78.34
43115;BME280;28727;50.068;14.452;2022-11-20T02:06:59;98994.78;;;-1.37;78.15
43115;BME280;28727;50.068;14.452;2022-11-20T02:09:31;98992.19;;;-1.37;78.53
43115;BME280;28727;50.068;14.452;2022-11-20T02:12:03;98986.16;;;-1.25;78.65
43115;BME280;28727;50.068;14.452;2022-11-20T02:14:35;98982.63;;;-1.11;78.38
43115;BME280;28727;50.068;14.452;2022-11-20T02:17:08;98982.84;;;-1.02;78.06
43115;BME280;28727;50.068;14.452;2022-11-20T02:19:39;98977.66;;;-1.02;77.81
43115;BME280;28727;50.068;14.452;2022-11-20T02:22:31;98978.78;;;-0.93;77.47
43115;BME280;28727;50.068;14.452;2022-11-20T02:25:10;98972.56;;;-0.91;77.04
43115;BME280;28727;50.068;14.452;2022-11-20T02:27:42;98975.34;;;-0.81;76.65
43115;BME280;28727;50.068;14.452;2022-11-20T02:30:14;98971.81;;;-0.80;76.77
43115;BME280;28727;50.068;14.452;2022-11-20T02:32:46;98972.41;;;-0.76;76.59
43115;BME280;28727;50.068;14.452;2022-11-20T02:37:58;98965.78;;;-0.68;76.67
43115;BME280;28727;50.068;14.452;2022-11-20T02:40:31;98965.59;;;-0.77;76.03
43115;BME280;28727;50.068;14.452;2022-11-20T02:43:03;98969.72;;;-0.75;76.56
43115;BME280;28727;50.068;14.452;2022-11-20T02:45:35;98967.34;;;-0.78;76.25
43115;BME280;28727;50.068;14.452;2022-11-20T02:48:07;98968.88;;;-0.75;76.74
43115;BME280;28727;50.068;14.452;2022-11-20T02:50:39;98963.09;;;-0.79;75.95
43115;BME280;28727;50.068;14.452;2022-11-20T02:53:11;98963.53;;;-0.85;75.98
43115;BME280;28727;50.068;14.452;2022-11-20T02:55:43;98970.06;;;-1.05;76.41
43115;BME280;28727;50.068;14.452;2022-11-20T02:58:14;98963.38;;;-1.07;76.67
43115;BME280;28727;50.068;14.452;2022-11-20T03:00:46;98968.31;;;-1.17;76.93
43115;BME280;28727;50.068;14.452;2022-11-20T03:03:20;98967.31;;;-1.27;77.08
43115;BME280;28727;50.068;14.452;2022-11-20T03:05:51;98963.47;;;-1.34;77.38
43115;BME280;28727;50.068;14.452;2022-11-20T03:08:26;98962.22;;;-1.41;77.36
43115;BME280;28727;50.068;14.452;2022-11-20T03:11:02;98957.66;;;-1.38;77.80
43115;BME280;28727;50.068;14.452;2022-11-20T03:13:36;98958.59;;;-1.26;77.14
43115;BME280;28727;50.068;14.452;2022-11-20T03:16:13;98956.09;;;-1.15;76.96
43115;BME280;28727;50.068;14.452;2022-11-20T03:18:45;98955.78;;;-1.10;76.62
43115;BME280;28727;50.068;14.452;2022-11-20T03:21:17;98952.88;;;-1.06;76.64
43115;BME280;28727;50.068;14.452;2022-11-20T03:23:49;98953.09;;;-0.96;76.28
43115;BME280;28727;50.068;14.452;2022-11-20T03:26:23;98953.69;;;-0.93;76.16
43115;BME280;28727;50.068;14.452;2022-11-20T03:28:57;98946.84;;;-0.94;75.96
43115;BME280;28727;50.068;14.452;2022-11-20T03:31:39;98951.09;;;-0.93;75.79
43115;BME280;28727;50.068;14.452;2022-11-20T03:34:11;98949.97;;;-0.89;76.08
43115;BME280;28727;50.068;14.452;2022-11-20T03:36:43;98947.06;;;-0.97;75.38
43115;BME280;28727;50.068;14.452;2022-11-20T03:39:15;98951.72;;;-0.89;75.79
43115;BME280;28727;50.068;14.452;2022-11-20T03:41:47;98955.94;;;-0.88;75.45
43115;BME280;28727;50.068;14.452;2022-11-20T03:44:21;98959.69;;;-0.92;75.75
43115;BME280;28727;50.068;14.452;2022-11-20T03:46:52;98959.63;;;-1.03;76.02
43115;BME280;28727;50.068;14.452;2022-11-20T03:49:24;98963.22;;;-1.06;75.94
43115;BME280;28727;50.068;14.452;2022-11-20T03:51:55;98968.75;;;-1.10;76.60
43115;BME280;28727;50.068;14.452;2022-11-20T03:54:27;98965.94;;;-1.07;76.36
43115;BME280;28727;50.068;14.452;2022-11-20T03:56:59;98971.56;;;-1.01;76.55
43115;BME280;28727;50.068;14.452;2022-11-20T03:59:30;98969.22;;;-0.93;75.78
43115;BME280;28727;50.068;14.452;2022-11-20T04:02:02;98976.19;;;-0.93;75.42
43115;BME280;28727;50.068;14.452;2022-11-20T04:04:34;98976.59;;;-0.99;75.31
43115;BME280;28727;50.068;14.452;2022-11-20T04:07:08;98985.00;;;-0.96;75.03
43115;BME280;28727;50.068;14.452;2022-11-20T04:09:40;98974.50;;;-0.94;74.90
43115;BME280;28727;50.068;14.452;2022-11-20T04:12:14;98981.91;;;-1.01;74.86
43115;BME280;28727;50.068;14.452;2022-11-20T04:14:46;98979.53;;;-1.16;75.42
43115;BME280;28727;50.068;14.452;2022-11-20T04:17:17;98976.75;;;-1.26;75.16
43115;BME280;28727;50.068;14.452;2022-11-20T04:19:49;98984.31;;;-1.36;75.54
43115;BME280;28727;50.068;14.452;2022-11-20T04:22:20;98982.22;;;-1.43;75.61
43115;BME280;28727;50.068;14.452;2022-11-20T04:24:52;98986.16;;;-1.50;75.28
43115;BME280;28727;50.068;14.452;2022-11-20T04:27:24;98984.72;;;-1.54;75.50
43115;BME280;28727;50.068;14.452;2022-11-20T04:29:55;98983.22;;;-1.58;75.84
43115;BME280;28727;50.068;14.452;2022-11-20T04:32:27;98977.13;;;-1.57;75.64
43115;BME280;28727;50.068;14.452;2022-11-20T04:35:00;98980.63;;;-1.58;75.93
43115;BME280;28727;50.068;14.452;2022-11-20T04:37:31;98987.38;;;-1.56;75.59
43115;BME280;28727;50.068;14.452;2022-11-20T04:40:03;98984.06;;;-1.58;75.58
43115;BME280;28727;50.068;14.452;2022-11-20T04:42:35;98966.66;;;-1.69;75.56
43115;BME280;28727;50.068;14.452;2022-11-20T04:45:07;98977.09;;;-1.70;76.04
43115;BME280;28727;50.068;14.452;2022-11-20T04:47:38;98967.59;;;-1.70;75.72
43115;BME280;28727;50.068;14.452;2022-11-20T04:50:10;98964.47;;;-1.75;75.75
43115;BME280;28727;50.068;14.452;2022-11-20T04:52:42;98960.13;;;-1.74;76.04
43115;BME280;28727;50.068;14.452;2022-11-20T04:55:13;98960.22;;;-1.76;75.53
43115;BME280;28727;50.068;14.452;2022-11-20T04:57:45;98950.09;;;-1.79;75.80
43115;BME280;28727;50.068;14.452;2022-11-20T05:00:17;98945.50;;;-1.88;76.09
43115;BME280;28727;50.068;14.452;2022-11-20T05:02:48;98945.91;;;-1.94;76.53
43115;BME280;28727;50.068;14.452;2022-11-20T05:05:20;98951.38;;;-1.98;76.70
43115;BME280;28727;50.068;14.452;2022-11-20T05:07:56;98949.63;;;-1.98;76.53
43115;BME280;28727;50.068;14.452;2022-11-20T05:10:28;98943.94;;;-2.03;76.49
43115;BME280;28727;50.068;14.452;2022-11-20T05:13:00;98936.13;;;-2.16;76.90
43115;BME280;28727;50.068;14.452;2022-11-20T05:15:32;98938.53;;;-2.13;77.19
43115;BME280;28727;50.068;14.452;2022-11-20T05:18:03;98942.34;;;-2.06;77.37
43115;BME280;28727;50.068;14.452;2022-11-20T05:20:35;98948.19;;;-2.02;77.00
43115;BME280;28727;50.068;14.452;2022-11-20T05:23:07;98949.50;;;-2.09;77.12
43115;BME280;28727;50.068;14.452;2022-11-20T05:25:39;98948.88;;;-2.13;76.94
43115;BME280;28727;50.068;14.452;2022-11-20T05:28:10;98951.66;;;-2.16;77.17
43115;BME280;28727;50.068;14.452;2022-11-20T05:30:42;98953.31;;;-2.15;77.06
43115;BME280;28727;50.068;14.452;2022-11-20T05:33:14;98951.56;;;-2.14;77.09
43115;BME280;28727;50.068;14.452;2022-11-20T05:35:45;98956.53;;;-2.11;77.07
43115;BME280;28727;50.068;14.452;2022-11-20T05:38:17;98948.44;;;-2.19;77.15
43115;BME280;28727;50.068;14.452;2022-11-20T05:40:49;98950.09;;;-2.18;76.89
43115;BME280;28727;50.068;14.452;2022-11-20T05:43:21;98948.09;;;-2.27;77.23
43115;BME280;28727;50.068;14.452;2022-11-20T05:45:53;98952.03;;;-2.22;77.31
43115;BME280;28727;50.068;14.452;2022-11-20T05:48:28;98947.31;;;-2.15;77.29
43115;BME280;28727;50.068;14.452;2022-11-20T05:51:02;98950.81;;;-2.16;76.81
43115;BME280;28727;50.068;14.452;2022-11-20T05:53:36;98948.06;;;-2.13;76.87
43115;BME280;28727;50.068;14.452;2022-11-20T05:56:10;98957.25;;;-2.09;76.69
43115;BME280;28727;50.068;14.452;2022-11-20T05:58:43;98961.22;;;-2.03;77.00
43115;BME280;28727;50.068;14.452;2022-11-20T06:01:25;98964.72;;;-2.04;76.77
43115;BME280;28727;50.068;14.452;2022-11-20T06:03:57;98953.97;;;-1.98;76.76
43115;BME280;28727;50.068;14.452;2022-11-20T06:06:28;98947.38;;;-1.90;76.52
43115;BME280;28727;50.068;14.452;2022-11-20T06:09:00;98944.78;;;-1.90;76.42
43115;BME280;28727;50.068;14.452;2022-11-20T06:11:31;98946.31;;;-1.87;76.12
43115;BME280;28727;50.068;14.452;2022-11-20T06:14:03;98945.31;;;-1.85;76.25
43115;BME280;28727;50.068;14.452;2022-11-20T06:16:35;98935.38;;;-1.78;75.92
43115;BME280;28727;50.068;14.452;2022-11-20T06:19:06;98937.84;;;-1.77;75.96
43115;BME280;28727;50.068;14.452;2022-11-20T06:21:38;98934.34;;;-1.76;76.07
43115;BME280;28727;50.068;14.452;2022-11-20T06:24:10;98930.22;;;-1.78;75.58
43115;BME280;28727;50.068;14.452;2022-11-20T06:26:42;98929.28;;;-1.77;75.66
43115;BME280;28727;50.068;14.452;2022-11-20T06:29:14;98931.03;;;-1.78;75.82
43115;BME280;28727;50.068;14.452;2022-11-20T06:31:46;98926.78;;;-1.79;75.51
43115;BME280;28727;50.068;14.452;2022-11-20T06:34:17;98931.03;;;-1.78;75.86
43115;BME280;28727;50.068;14.452;2022-11-20T06:36:49;98936.50;;;-1.82;75.25
43115;BME280;28727;50.068;14.452;2022-11-20T06:39:24;98936.72;;;-1.85;75.74
43115;BME280;28727;50.068;14.452;2022-11-20T06:41:55;98932.78;;;-1.78;75.80
43115;BME280;28727;50.068;14.452;2022-11-20T06:44:29;98942.53;;;-1.69;75.23
43115;BME280;28727;50.068;14.452;2022-11-20T06:47:01;98940.25;;;-1.61;75.10
43115;BME280;28727;50.068;14.452;2022-11-20T06:49:33;98937.97;;;-1.53;74.82
43115;BME280;28727;50.068;14.452;2022-11-20T06:52:05;98934.25;;;-1.49;74.55
43115;BME280;28727;50.068;14.452;2022-11-20T06:54:37;98939.13;;;-1.44;74.53
43115;BME280;28727;50.068;14.452;2022-11-20T06:57:09;98939.97;;;-1.44;74.48
43115;BME280;28727;50.068;14.452;2022-11-20T06:59:41;98943.28;;;-1.42;74.11
43115;BME280;28727;50.068;14.452;2022-11-20T07:02:12;98929.38;;;-1.41;74.04
43115;BME280;28727;50.068;14.452;2022-11-20T07:04:47;98919.66;;;-1.37;74.25
43115;BME280;28727;50.068;14.452;2022-11-20T07:07:19;98896.34;;;-1.37;74.75
43115;BME280;28727;50.068;14.452;2022-11-20T07:09:50;98893.75;;;-1.37;74.46
43115;BME280;28727;50.068;14.452;2022-11-20T07:12:22;98909.06;;;-1.34;74.41
43115;BME280;28727;50.068;14.452;2022-11-20T07:14:54;98918.59;;;-1.35;74.68
43115;BME280;28727;50.068;14.452;2022-11-20T07:17:26;98912.06;;;-1.40;74.68
43115;BME280;28727;50.068;14.452;2022-11-20T07:19:58;98915.00;;;-1.45;74.05
43115;BME280;28727;50.068;14.452;2022-11-20T07:22:29;98928.34;;;-1.38;74.51
43115;BME280;28727;50.068;14.452;2022-11-20T07:25:04;98916.53;;;-1.30;74.23
43115;BME280;28727;50.068;14.452;2022-11-20T07:27:36;98921.50;;;-1.27;74.44
43115;BME280;28727;50.068;14.452;2022-11-20T07:30:08;98940.47;;;-1.26;74.57
43115;BME280;28727;50.068;14.452;2022-11-20T07:32:40;98923.78;;;-1.22;74.37
43115;BME280;28727;50.068;14.452;2022-11-20T07:35:12;98922.94;;;-1.10;74.64
43115;BME280;28727;50.068;14.452;2022-11-20T07:37:47;98932.78;;;-1.02;74.25
43115;BME280;28727;50.068;14.452;2022-11-20T07:40:20;98926.34;;;-0.97;74.05
43115;BME280;28727;50.068;14.452;2022-11-20T07:42:54;98928.50;;;-0.91;73.84
43115;BME280;28727;50.068;14.452;2022-11-20T07:45:26;98916.53;;;-0.80;73.62
43115;BME280;28727;50.068;14.452;2022-11-20T07:47:58;98905.31;;;-0.68;72.98
43115;BME280;28727;50.068;14.452;2022-11-20T07:50:35;98905.97;;;-0.54;72.75
43115;BME280;28727;50.068;14.452;2022-11-20T07:53:06;98901.97;;;-0.47;72.14
43115;BME280;28727;50.068;14.452;2022-11-20T07:55:39;98918.50;;;-0.48;72.61
43115;BME280;28727;50.068;14.452;2022-11-20T07:58:11;98917.06;;;-0.52;72.58
43115;BME280;28727;50.068;14.452;2022-11-20T08:00:43;98917.44;;;-0.45;72.56
43115;BME280;28727;50.068;14.452;2022-11-20T08:03:15;98901.22;;;-0.36;71.45
43115;BME280;28727;50.068;14.452;2022-11-20T08:05:58;98915.72;;;-0.33;71.08
43115;BME280;28727;50.068;14.452;2022-11-20T08:08:31;98908.78;;;-0.33;71.41
43115;BME280;28727;50.068;14.452;2022-11-20T08:11:05;98911.81;;;-0.39;71.33
43115;BME280;28727;50.068;14.452;2022-11-20T08:14:06;98911.31;;;-0.44;71.56
43115;BME280;28727;50.068;14.452;2022-11-20T08:16:46;98907.06;;;-0.45;71.78
43115;BME280;28727;50.068;14.452;2022-11-20T08:19:18;98906.34;;;-0.47;71.77
43115;BME280;28727;50.068;14.452;2022-11-20T08:21:51;98919.53;;;-0.50;71.16
43115;BME280;28727;50.068;14.452;2022-11-20T08:24:22;98918.94;;;-0.54;71.83
43115;BME280;28727;50.068;14.452;2022-11-20T08:26:57;98910.00;;;-0.50;71.92
43115;BME280;28727;50.068;14.452;2022-11-20T08:29:29;98911.44;;;-0.46;72.10
43115;BME280;28727;50.068;14.452;2022-11-20T08:32:00;98909.94;;;-0.37;71.69
43115;BME280;28727;50.068;14.452;2022-11-20T08:34:32;98905.34;;;-0.33;71.55
43115;BME280;28727;50.068;14.452;2022-11-20T08:37:04;98901.59;;;-0.29;71.89
43115;BME280;28727;50.068;14.452;2022-11-20T08:39:35;98897.84;;;-0.25;71.59
43115;BME280;28727;50.068;14.452;2022-11-20T08:42:07;98895.63;;;-0.19;71.43
43115;BME280;28727;50.068;14.452;2022-11-20T08:44:39;98892.22;;;-0.19;71.64
43115;BME280;28727;50.068;14.452;2022-11-20T08:47:11;98889.34;;;-0.27;71.97
43115;BME280;28727;50.068;14.452;2022-11-20T08:49:43;98879.34;;;-0.21;71.81
43115;BME280;28727;50.068;14.452;2022-11-20T08:52:14;98884.56;;;-0.10;71.87
43115;BME280;28727;50.068;14.452;2022-11-20T08:54:46;98875.59;;;-0.06;71.73
43115;BME280;28727;50.068;14.452;2022-11-20T08:57:17;98878.34;;;0.04;71.68
43115;BME280;28727;50.068;14.452;2022-11-20T08:59:49;98850.97;;;0.00;71.77
43115;BME280;28727;50.068;14.452;2022-11-20T09:02:37;98853.69;;;-0.02;71.62
43115;BME280;28727;50.068;14.452;2022-11-20T09:05:09;98858.25;;;-0.05;71.55
43115;BME280;28727;50.068;14.452;2022-11-20T09:07:41;98861.00;;;-0.07;71.58
43115;BME280;28727;50.068;14.452;2022-11-20T09:10:13;98876.94;;;0.00;71.45
43115;BME280;28727;50.068;14.452;2022-11-20T09:13:00;98885.91;;;0.07;71.27
43115;BME280;28727;50.068;14.452;2022-11-20T09:15:33;98879.78;;;0.08;71.05
43115;BME280;28727;50.068;14.452;2022-11-20T09:18:05;98879.31;;;0.14;71.03
43115;BME280;28727;50.068;14.452;2022-11-20T09:20:36;98878.84;;;0.20;70.89
43115;BME280;28727;50.068;14.452;2022-11-20T09:23:08;98888.22;;;0.23;71.26
43115;BME280;28727;50.068;14.452;2022-11-20T09:25:41;98882.75;;;0.26;70.56
43115;BME280;28727;50.068;14.452;2022-11-20T09:28:12;98874.25;;;0.24;70.56
43115;BME280;28727;50.068;14.452;2022-11-20T09:30:44;98881.09;;;0.25;70.50
43115;BME280;28727;50.068;14.452;2022-11-20T09:33:16;98892.94;;;0.29;70.50
43115;BME280;28727;50.068;14.452;2022-11-20T09:35:48;98889.25;;;0.31;70.52
43115;BME280;28727;50.068;14.452;2022-11-20T09:38:20;98882.78;;;0.37;70.79
43115;BME280;28727;50.068;14.452;2022-11-20T09:40:57;98877.38;;;0.40;70.38
43115;BME280;28727;50.068;14.452;2022-11-20T09:46:28;98859.41;;;0.37;70.37
43115;BME280;28727;50.068;14.452;2022-11-20T09:51:56;98857.41;;;0.29;70.91
43115;BME280;28727;50.068;14.452;2022-11-20T09:54:31;98858.91;;;0.21;72.14
43115;BME280;28727;50.068;14.452;2022-11-20T09:57:10;98851.59;;;0.26;72.27
43115;BME280;28727;50.068;14.452;2022-11-20T09:59:59;98847.13;;;0.28;72.55
43115;BME280;28727;50.068;14.452;2022-11-20T10:05:39;98835.56;;;0.32;72.52
43115;BME280;28727;50.068;14.452;2022-11-20T10:11:00;98850.66;;;0.38;73.04
43115;BME280;28727;50.068;14.452;2022-11-20T10:30:09;98829.03;;;0.71;73.26
43115;BME280;28727;50.068;14.452;2022-11-20T10:32:45;98849.72;;;0.72;73.52
43115;BME280;28727;50.068;14.452;2022-11-20T10:35:25;98836.84;;;0.71;73.62
43115;BME280;28727;50.068;14.452;2022-11-20T10:38:00;98803.41;;;0.66;73.67
43115;BME280;28727;50.068;14.452;2022-11-20T10:40:35;98794.78;;;0.66;73.67
43115;BME280;28727;50.068;14.452;2022-11-20T10:43:28;98808.63;;;0.66;73.32
43115;BME280;28727;50.068;14.452;2022-11-20T10:46:05;98816.06;;;0.60;73.64
43115;BME280;28727;50.068;14.452;2022-11-20T10:48:42;98814.44;;;0.59;73.63
43115;BME280;28727;50.068;14.452;2022-11-20T10:54:06;98815.72;;;0.64;73.89
43115;BME280;28727;50.068;14.452;2022-11-20T10:56:53;98806.72;;;0.68;73.43
43115;BME280;28727;50.068;14.452;2022-11-20T11:02:31;98809.44;;;0.78;73.88
43115;BME280;28727;50.068;14.452;2022-11-20T11:08:00;98785.09;;;0.79;73.73
43115;BME280;28727;50.068;14.452;2022-11-20T11:10:39;98779.41;;;0.85;73.90
43115;BME280;28727;50.068;14.452;2022-11-20T11:13:39;98773.13;;;0.99;73.61
43115;BME280;28727;50.068;14.452;2022-11-20T11:16:25;98769.97;;;1.16;73.29
43115;BME280;28727;50.068;14.452;2022-11-20T11:19:12;98770.16;;;1.24;73.29
43115;BME280;28727;50.068;14.452;2022-11-20T11:21:47;98764.13;;;1.35;72.76
43115;BME280;28727;50.068;14.452;2022-11-20T11:24:28;98773.56;;;1.36;72.93
43115;BME280;28727;50.068;14.452;2022-11-20T11:27:14;98766.13;;;1.31;72.63
43115;BME280;28727;50.068;14.452;2022-11-20T11:29:49;98768.94;;;1.39;72.57
43115;BME280;28727;50.068;14.452;2022-11-20T11:32:21;98772.31;;;1.51;72.35
43115;BME280;28727;50.068;14.452;2022-11-20T11:35:05;98769.66;;;1.62;72.10
43115;BME280;28727;50.068;14.452;2022-11-20T11:37:38;98767.09;;;1.72;72.15
43115;BME280;28727;50.068;14.452;2022-11-20T11:40:11;98761.31;;;1.89;72.30
43115;BME280;28727;50.068;14.452;2022-11-20T11:43:05;98753.91;;;2.15;71.18
43115;BME280;28727;50.068;14.452;2022-11-20T11:45:57;98754.75;;;2.25;70.97
43115;BME280;28727;50.068;14.452;2022-11-20T11:48:28;98755.75;;;2.24;71.19
43115;BME280;28727;50.068;14.452;2022-11-20T11:51:00;98752.97;;;2.25;70.75
43115;BME280;28727;50.068;14.452;2022-11-20T11:53:33;98757.16;;;2.37;70.76
43115;BME280;28727;50.068;14.452;2022-11-20T11:56:11;98761.59;;;2.46;70.81
43115;BME280;28727;50.068;14.452;2022-11-20T11:58:47;98750.06;;;2.49;70.24
43115;BME280;28727;50.068;14.452;2022-11-20T12:01:41;98737.44;;;2.54;69.51
43115;BME280;28727;50.068;14.452;2022-11-20T12:07:03;98752.25;;;2.54;70.10
43115;BME280;28727;50.068;14.452;2022-11-20T12:10:00;98759.41;;;2.61;69.65
43115;BME280;28727;50.068;14.452;2022-11-20T12:12:40;98749.94;;;2.60;69.98
43115;BME280;28727;50.068;14.452;2022-11-20T12:15:20;98737.34;;;2.65;70.33
43115;BME280;28727;50.068;14.452;2022-11-20T12:17:54;98732.50;;;2.51;70.97
43115;BME280;28727;50.068;14.452;2022-11-20T12:20:31;98723.31;;;2.47;70.70
43115;BME280;28727;50.068;14.452;2022-11-20T12:23:16;98716.09;;;2.30;71.48
43115;BME280;28727;50.068;14.452;2022-11-20T12:25:52;98724.38;;;2.35;72.04
43115;BME280;28727;50.068;14.452;2022-11-20T12:28:44;98722.88;;;2.42;71.77
43115;BME280;28727;50.068;14.452;2022-11-20T12:31:33;98709.59;;;2.45;70.88
43115;BME280;28727;50.068;14.452;2022-11-20T12:34:28;98697.09;;;2.39;71.70
43115;BME280;28727;50.068;14.452;2022-11-20T12:39:48;98700.81;;;2.46;71.25
43115;BME280;28727;50.068;14.452;2022-11-20T12:45:46;98710.66;;;2.42;70.77
43115;BME280;28727;50.068;14.452;2022-11-20T13:05:17;98682.38;;;2.28;72.29
43115;BME280;28727;50.068;14.452;2022-11-20T13:07:52;98687.91;;;2.35;72.31
43115;BME280;28727;50.068;14.452;2022-11-20T13:10:58;98677.19;;;2.38;71.65
43115;BME280;28727;50.068;14.452;2022-11-20T13:13:39;98678.25;;;2.26;72.29
43115;BME280;28727;50.068;14.452;2022-11-20T13:16:33;98679.38;;;2.23;72.77
43115;BME280;28727;50.068;14.452;2022-11-20T13:19:11;98684.03;;;2.29;72.95
43115;BME280;28727;50.068;14.452;2022-11-20T13:21:48;98684.88;;;2.39;72.48
43115;BME280;28727;50.068;14.452;2022-11-20T13:24:24;98672.97;;;2.46;72.86
43115;BME280;28727;50.068;14.452;2022-11-20T13:27:16;98668.84;;;2.54;72.93
43115;BME280;28727;50.068;14.452;2022-11-20T13:30:12;98671.59;;;2.52;72.42
43115;BME280;28727;50.068;14.452;2022-11-20T13:33:43;98660.91;;;2.55;72.44
43115;BME280;28727;50.068;14.452;2022-11-20T13:36:22;98648.00;;;2.54;72.31
43115;BME280;28727;50.068;14.452;2022-11-20T13:38:55;98628.66;;;2.56;72.16
43115;BME280;28727;50.068;14.452;2022-11-20T13:41:33;98637.19;;;2.58;72.50
43115;BME280;28727;50.068;14.452;2022-11-20T13:46:53;98648.97;;;2.62;72.30
43115;BME280;28727;50.068;14.452;2022-11-20T13:52:31;98658.97;;;2.47;72.31
43115;BME280;28727;50.068;14.452;2022-11-20T13:55:33;98646.91;;;2.46;72.99
43115;BME280;28727;50.068;14.452;2022-11-20T13:58:22;98662.25;;;2.50;72.92
43115;BME280;28727;50.068;14.452;2022-11-20T14:01:20;98656.75;;;2.43;72.88
43115;BME280;28727;50.068;14.452;2022-11-20T14:03:53;98644.69;;;2.42;73.01
43115;BME280;28727;50.068;14.452;2022-11-20T14:06:42;98645.91;;;2.28;73.16
43115;BME280;28727;50.068;14.452;2022-11-20T14:09:31;98649.31;;;2.19;73.70
43115;BME280;28727;50.068;14.452;2022-11-20T14:12:12;98641.91;;;2.24;74.28
43115;BME280;28727;50.068;14.452;2022-11-20T14:14:50;98633.84;;;2.27;73.68
43115;BME280;28727;50.068;14.452;2022-11-20T14:20:12;98638.34;;;2.16;74.11
43115;BME280;28727;50.068;14.452;2022-11-20T14:22:49;98632.00;;;2.09;74.04
43115;BME280;28727;50.068;14.452;2022-11-20T14:25:24;98645.56;;;2.02;74.66
43115;BME280;28727;50.068;14.452;2022-11-20T14:28:00;98648.59;;;2.08;74.98
43115;BME280;28727;50.068;14.452;2022-11-20T14:30:43;98647.38;;;2.12;74.88
43115;BME280;28727;50.068;14.452;2022-11-20T14:33:16;98652.06;;;2.18;74.78
43115;BME280;28727;50.068;14.452;2022-11-20T14:35:51;98648.47;;;2.19;74.22
43115;BME280;28727;50.068;14.452;2022-11-20T14:38:32;98653.03;;;2.17;74.10
43115;BME280;28727;50.068;14.452;2022-11-20T14:44:09;98645.97;;;2.08;74.42
43115;BME280;28727;50.068;14.452;2022-11-20T14:46:42;98653.38;;;2.12;75.02
43115;BME280;28727;50.068;14.452;2022-11-20T14:49:13;98634.78;;;2.17;75.12
43115;BME280;28727;50.068;14.452;2022-11-20T14:51:45;98642.59;;;2.17;74.80
43115;BME280;28727;50.068;14.452;2022-11-20T14:54:19;98649.00;;;2.13;74.86
43115;BME280;28727;50.068;14.452;2022-11-20T14:57:00;98651.06;;;2.09;75.33